sensor_id;sensor_type;location;lat;lon;timestamp;P1;durP1;ratioP1;P2;durP2;ratioP2
37945;SDS011;23769;52.478;13.448;2023-12-14T00:01:55;24.02;;;12.10;;
37945;SDS011;23769;52.478;13.448;2023-12-14T00:04:23;24.80;;;13.00;;
37945;SDS011;23769;52.478;13.448;2023-12-14T00:06:52;24.65;;;13.18;;
37945;SDS011;23769;52.478;13.448;2023-12-14T00:09:19;23.75;;;13.70;;
37945;SDS011;23769;52.478;13.448;2023-12-14T00:11:47;27.88;;;13.68;;
37945;SDS011;23769;52.478;13.448;2023-12-14T00:14:14;26.15;;;13.10;;
37945;SDS011;23769;52.478;13.448;2023-12-14T00:16:42;25.60;;;13.30;;
37945;SDS011;23769;52.478;13.448;2023-12-14T00:19:09;26.77;;;14.43;;
37945;SDS011;23769;52.478;13.448;2023-12-14T00:21:37;24.90;;;13.32;;
37945;SDS011;23769;52.478;13.448;2023-12-14T00:24:06;28.67;;;14.02;;
37945;SDS011;23769;52.478;13.448;2023-12-14T00:26:33;28.35;;;13.93;;
37945;SDS011;23769;52.478;13.448;2023-12-14T00:29:00;26.45;;;13.27;;
37945;SDS011;23769;52.478;13.448;2023-12-14T00:31:28;29.88;;;14.85;;
37945;SDS011;23769;52.478;13.448;2023-12-14T00:33:55;27.23;;;12.85;;
37945;SDS011;23769;52.478;13.448;2023-12-14T00:36:22;24.30;;;13.05;;
37945;SDS011;23769;52.478;13.448;2023-12-14T00:38:49;27.13;;;14.40;;
37945;SDS011;23769;52.478;13.448;2023-12-14T00:41:18;27.98;;;14.88;;
37945;SDS011;23769;52.478;13.448;2023-12-14T00:43:45;26.13;;;14.15;;
37945;SDS011;23769;52.478;13.448;2023-12-14T00:46:12;24.77;;;12.60;;
37945;SDS011;23769;52.478;13.448;2023-12-14T00:48:39;24.60;;;12.93;;
37945;SDS011;23769;52.478;13.448;2023-12-14T00:51:07;23.50;;;12.60;;
37945;SDS011;23769;52.478;13.448;2023-12-14T00:53:34;26.50;;;12.77;;
37945;SDS011;23769;52.478;13.448;2023-12-14T00:56:01;25.88;;;13.18;;
37945;SDS011;23769;52.478;13.448;2023-12-14T00:58:30;25.85;;;12.73;;
37945;SDS011;23769;52.478;13.448;2023-12-14T01:00:57;22.90;;;12.07;;
37945;SDS011;23769;52.478;13.448;2023-12-14T01:03:24;23.90;;;12.13;;
37945;SDS011;23769;52.478;13.448;2023-12-14T01:05:51;19.45;;;11.23;;
37945;SDS011;23769;52.478;13.448;2023-12-14T01:08:19;22.30;;;12.43;;
37945;SDS011;23769;52.478;13.448;2023-12-14T01:10:46;26.98;;;13.30;;
37945;SDS011;23769;52.478;13.448;2023-12-14T01:13:13;23.77;;;12.48;;
37945;SDS011;23769;52.478;13.448;2023-12-14T01:15:42;20.67;;;11.57;;
37945;SDS011;23769;52.478;13.448;2023-12-14T01:18:09;19.33;;;10.80;;
37945;SDS011;23769;52.478;13.448;2023-12-14T01:20:37;19.23;;;10.55;;
37945;SDS011;23769;52.478;13.448;2023-12-14T01:23:04;17.40;;;10.20;;
37945;SDS011;23769;52.478;13.448;2023-12-14T01:25:34;16.58;;;9.88;;
37945;SDS011;23769;52.478;13.448;2023-12-14T01:28:01;20.17;;;10.50;;
37945;SDS011;23769;52.478;13.448;2023-12-14T01:30:29;22.05;;;11.00;;
37945;SDS011;23769;52.478;13.448;2023-12-14T01:32:57;22.98;;;11.88;;
37945;SDS011;23769;52.478;13.448;2023-12-14T01:35:24;22.92;;;11.50;;
37945;SDS011;23769;52.478;13.448;2023-12-14T01:37:53;21.23;;;11.65;;
37945;SDS011;23769;52.478;13.448;2023-12-14T01:40:20;20.38;;;11.13;;
37945;SDS011;23769;52.478;13.448;2023-12-14T01:42:48;21.45;;;11.10;;
37945;SDS011;23769;52.478;13.448;2023-12-14T01:45:15;19.67;;;10.60;;
37945;SDS011;23769;52.478;13.448;2023-12-14T01:47:43;21.20;;;10.90;;
37945;SDS011;23769;52.478;13.448;2023-12-14T01:50:12;18.80;;;10.48;;
37945;SDS011;23769;52.478;13.448;2023-12-14T01:52:39;23.83;;;12.10;;
37945;SDS011;23769;52.478;13.448;2023-12-14T01:55:06;20.08;;;10.95;;
37945;SDS011;23769;52.478;13.448;2023-12-14T01:57:34;21.42;;;11.57;;
37945;SDS011;23769;52.478;13.448;2023-12-14T02:00:01;19.55;;;10.73;;
37945;SDS011;23769;52.478;13.448;2023-12-14T02:02:28;19.23;;;10.77;;
37945;SDS011;23769;52.478;13.448;2023-12-14T02:04:55;21.15;;;11.32;;
37945;SDS011;23769;52.478;13.448;2023-12-14T02:07:24;17.75;;;9.38;;
37945;SDS011;23769;52.478;13.448;2023-12-14T02:09:51;18.90;;;10.23;;
37945;SDS011;23769;52.478;13.448;2023-12-14T02:12:18;18.33;;;9.65;;
37945;SDS011;23769;52.478;13.448;2023-12-14T02:14:48;20.35;;;9.90;;
37945;SDS011;23769;52.478;13.448;2023-12-14T02:17:15;17.02;;;9.27;;
37945;SDS011;23769;52.478;13.448;2023-12-14T02:19:42;13.77;;;8.65;;
37945;SDS011;23769;52.478;13.448;2023-12-14T02:22:09;14.77;;;8.65;;
37945;SDS011;23769;52.478;13.448;2023-12-14T02:24:38;17.58;;;9.25;;
37945;SDS011;23769;52.478;13.448;2023-12-14T02:27:05;15.75;;;8.82;;
37945;SDS011;23769;52.478;13.448;2023-12-14T02:29:32;14.23;;;8.48;;
37945;SDS011;23769;52.478;13.448;2023-12-14T02:32:00;14.43;;;7.82;;
37945;SDS011;23769;52.478;13.448;2023-12-14T02:34:27;12.75;;;7.10;;
37945;SDS011;23769;52.478;13.448;2023-12-14T02:36:54;11.20;;;6.85;;
37945;SDS011;23769;52.478;13.448;2023-12-14T02:39:21;14.13;;;6.95;;
37945;SDS011;23769;52.478;13.448;2023-12-14T02:41:50;12.40;;;6.70;;
37945;SDS011;23769;52.478;13.448;2023-12-14T02:44:17;11.93;;;7.28;;
37945;SDS011;23769;52.478;13.448;2023-12-14T02:46:45;13.30;;;8.13;;
37945;SDS011;23769;52.478;13.448;2023-12-14T02:49:12;14.10;;;7.25;;
37945;SDS011;23769;52.478;13.448;2023-12-14T02:51:39;16.33;;;7.90;;
37945;SDS011;23769;52.478;13.448;2023-12-14T02:54:06;16.83;;;8.75;;
37945;SDS011;23769;52.478;13.448;2023-12-14T02:56:34;17.13;;;7.60;;
37945;SDS011;23769;52.478;13.448;2023-12-14T02:59:02;14.93;;;9.13;;
37945;SDS011;23769;52.478;13.448;2023-12-14T03:01:29;19.25;;;9.82;;
37945;SDS011;23769;52.478;13.448;2023-12-14T03:03:57;16.40;;;8.93;;
37945;SDS011;23769;52.478;13.448;2023-12-14T03:06:24;18.75;;;9.88;;
37945;SDS011;23769;52.478;13.448;2023-12-14T03:08:51;20.00;;;9.82;;
37945;SDS011;23769;52.478;13.448;2023-12-14T03:11:21;20.88;;;9.82;;
37945;SDS011;23769;52.478;13.448;2023-12-14T03:13:49;18.85;;;9.18;;
37945;SDS011;23769;52.478;13.448;2023-12-14T03:16:18;23.02;;;10.68;;
37945;SDS011;23769;52.478;13.448;2023-12-14T03:18:45;20.77;;;10.18;;
37945;SDS011;23769;52.478;13.448;2023-12-14T03:21:17;19.55;;;9.80;;
37945;SDS011;23769;52.478;13.448;2023-12-14T03:23:44;20.13;;;10.52;;
37945;SDS011;23769;52.478;13.448;2023-12-14T03:26:11;19.08;;;9.82;;
37945;SDS011;23769;52.478;13.448;2023-12-14T03:28:39;16.25;;;9.35;;
37945;SDS011;23769;52.478;13.448;2023-12-14T03:31:06;15.90;;;8.73;;
37945;SDS011;23769;52.478;13.448;2023-12-14T03:33:35;20.40;;;10.18;;
37945;SDS011;23769;52.478;13.448;2023-12-14T03:36:02;20.10;;;9.45;;
37945;SDS011;23769;52.478;13.448;2023-12-14T03:38:29;17.13;;;10.00;;
37945;SDS011;23769;52.478;13.448;2023-12-14T03:40:56;14.15;;;8.32;;
37945;SDS011;23769;52.478;13.448;2023-12-14T03:43:24;18.33;;;9.27;;
37945;SDS011;23769;52.478;13.448;2023-12-14T03:45:51;19.20;;;10.32;;
37945;SDS011;23769;52.478;13.448;2023-12-14T03:48:18;19.63;;;10.30;;
37945;SDS011;23769;52.478;13.448;2023-12-14T03:50:47;17.33;;;9.23;;
37945;SDS011;23769;52.478;13.448;2023-12-14T03:53:14;18.27;;;8.90;;
37945;SDS011;23769;52.478;13.448;2023-12-14T03:55:41;18.38;;;9.75;;
37945;SDS011;23769;52.478;13.448;2023-12-14T03:58:09;19.27;;;9.77;;
37945;SDS011;23769;52.478;13.448;2023-12-14T04:00:36;18.67;;;8.55;;
37945;SDS011;23769;52.478;13.448;2023-12-14T04:03:03;19.88;;;10.05;;
37945;SDS011;23769;52.478;13.448;2023-12-14T04:05:31;16.58;;;9.75;;
37945;SDS011;23769;52.478;13.448;2023-12-14T04:07:59;17.80;;;8.77;;
37945;SDS011;23769;52.478;13.448;2023-12-14T04:10:26;15.80;;;8.25;;
37945;SDS011;23769;52.478;13.448;2023-12-14T04:12:54;17.98;;;9.25;;
37945;SDS011;23769;52.478;13.448;2023-12-14T04:15:21;14.38;;;8.48;;
37945;SDS011;23769;52.478;13.448;2023-12-14T04:17:48;14.25;;;8.30;;
37945;SDS011;23769;52.478;13.448;2023-12-14T04:20:15;13.48;;;8.20;;
37945;SDS011;23769;52.478;13.448;2023-12-14T04:22:42;13.80;;;7.95;;
37945;SDS011;23769;52.478;13.448;2023-12-14T04:25:11;12.93;;;7.75;;
37945;SDS011;23769;52.478;13.448;2023-12-14T04:27:38;17.20;;;7.53;;
37945;SDS011;23769;52.478;13.448;2023-12-14T04:30:06;16.05;;;8.40;;
37945;SDS011;23769;52.478;13.448;2023-12-14T04:32:35;17.23;;;8.48;;
37945;SDS011;23769;52.478;13.448;2023-12-14T04:35:03;15.65;;;8.02;;
37945;SDS011;23769;52.478;13.448;2023-12-14T04:37:30;14.50;;;7.70;;
37945;SDS011;23769;52.478;13.448;2023-12-14T04:39:57;13.30;;;8.02;;
37945;SDS011;23769;52.478;13.448;2023-12-14T04:42:26;14.85;;;6.85;;
37945;SDS011;23769;52.478;13.448;2023-12-14T04:44:53;13.55;;;7.65;;
37945;SDS011;23769;52.478;13.448;2023-12-14T04:47:20;11.52;;;7.10;;
37945;SDS011;23769;52.478;13.448;2023-12-14T04:49:47;15.38;;;8.13;;
37945;SDS011;23769;52.478;13.448;2023-12-14T04:52:15;16.55;;;8.32;;
37945;SDS011;23769;52.478;13.448;2023-12-14T04:54:42;13.40;;;8.00;;
37945;SDS011;23769;52.478;13.448;2023-12-14T04:57:09;13.77;;;7.35;;
37945;SDS011;23769;52.478;13.448;2023-12-14T04:59:38;14.30;;;7.85;;
37945;SDS011;23769;52.478;13.448;2023-12-14T05:02:08;14.30;;;7.47;;
37945;SDS011;23769;52.478;13.448;2023-12-14T05:04:35;14.20;;;7.45;;
37945;SDS011;23769;52.478;13.448;2023-12-14T05:07:02;15.75;;;7.93;;
37945;SDS011;23769;52.478;13.448;2023-12-14T05:09:29;17.63;;;8.85;;
37945;SDS011;23769;52.478;13.448;2023-12-14T05:11:57;14.20;;;7.68;;
37945;SDS011;23769;52.478;13.448;2023-12-14T05:14:24;14.70;;;8.57;;
37945;SDS011;23769;52.478;13.448;2023-12-14T05:16:55;14.38;;;7.72;;
37945;SDS011;23769;52.478;13.448;2023-12-14T05:19:21;14.95;;;8.15;;
37945;SDS011;23769;52.478;13.448;2023-12-14T05:21:48;13.52;;;7.22;;
37945;SDS011;23769;52.478;13.448;2023-12-14T05:24:16;14.02;;;8.70;;
37945;SDS011;23769;52.478;13.448;2023-12-14T05:26:43;13.43;;;7.97;;
37945;SDS011;23769;52.478;13.448;2023-12-14T05:29:10;15.70;;;9.10;;
37945;SDS011;23769;52.478;13.448;2023-12-14T05:31:38;15.73;;;8.32;;
37945;SDS011;23769;52.478;13.448;2023-12-14T05:34:06;15.70;;;8.82;;
37945;SDS011;23769;52.478;13.448;2023-12-14T05:36:33;14.85;;;8.07;;
37945;SDS011;23769;52.478;13.448;2023-12-14T05:39:01;11.30;;;7.18;;
37945;SDS011;23769;52.478;13.448;2023-12-14T05:41:28;16.00;;;9.45;;
37945;SDS011;23769;52.478;13.448;2023-12-14T05:43:56;12.50;;;8.45;;
37945;SDS011;23769;52.478;13.448;2023-12-14T05:46:23;13.02;;;7.80;;
37945;SDS011;23769;52.478;13.448;2023-12-14T05:48:51;15.95;;;8.93;;
37945;SDS011;23769;52.478;13.448;2023-12-14T05:51:29;12.82;;;7.68;;
37945;SDS011;23769;52.478;13.448;2023-12-14T05:53:56;13.25;;;8.13;;
37945;SDS011;23769;52.478;13.448;2023-12-14T05:56:23;14.75;;;7.93;;
37945;SDS011;23769;52.478;13.448;2023-12-14T05:58:51;13.80;;;8.00;;
37945;SDS011;23769;52.478;13.448;2023-12-14T06:01:18;14.93;;;8.57;;
37945;SDS011;23769;52.478;13.448;2023-12-14T06:03:45;10.88;;;6.82;;
37945;SDS011;23769;52.478;13.448;2023-12-14T06:06:13;13.88;;;8.15;;
37945;SDS011;23769;52.478;13.448;2023-12-14T06:08:42;21.00;;;10.95;;
37945;SDS011;23769;52.478;13.448;2023-12-14T06:11:09;13.18;;;7.38;;
37945;SDS011;23769;52.478;13.448;2023-12-14T06:13:36;13.57;;;7.50;;
37945;SDS011;23769;52.478;13.448;2023-12-14T06:16:05;11.02;;;6.53;;
37945;SDS011;23769;52.478;13.448;2023-12-14T06:18:37;10.23;;;6.43;;
37945;SDS011;23769;52.478;13.448;2023-12-14T06:21:06;11.05;;;6.35;;
37945;SDS011;23769;52.478;13.448;2023-12-14T06:23:34;10.40;;;6.70;;
37945;SDS011;23769;52.478;13.448;2023-12-14T06:26:03;13.55;;;7.45;;
37945;SDS011;23769;52.478;13.448;2023-12-14T06:28:31;11.38;;;6.88;;
37945;SDS011;23769;52.478;13.448;2023-12-14T06:30:58;13.02;;;6.80;;
37945;SDS011;23769;52.478;13.448;2023-12-14T06:33:26;12.23;;;8.05;;
37945;SDS011;23769;52.478;13.448;2023-12-14T06:35:54;11.57;;;7.38;;
37945;SDS011;23769;52.478;13.448;2023-12-14T06:38:21;11.52;;;7.38;;
37945;SDS011;23769;52.478;13.448;2023-12-14T06:40:49;11.20;;;7.15;;
37945;SDS011;23769;52.478;13.448;2023-12-14T06:43:18;11.32;;;7.15;;
37945;SDS011;23769;52.478;13.448;2023-12-14T06:45:45;10.27;;;7.30;;
37945;SDS011;23769;52.478;13.448;2023-12-14T06:48:13;11.95;;;6.88;;
37945;SDS011;23769;52.478;13.448;2023-12-14T06:50:40;10.68;;;6.45;;
37945;SDS011;23769;52.478;13.448;2023-12-14T06:53:08;8.85;;;6.28;;
37945;SDS011;23769;52.478;13.448;2023-12-14T06:55:35;10.27;;;6.93;;
37945;SDS011;23769;52.478;13.448;2023-12-14T06:58:03;10.57;;;6.97;;
37945;SDS011;23769;52.478;13.448;2023-12-14T07:00:37;11.10;;;7.30;;
37945;SDS011;23769;52.478;13.448;2023-12-14T07:03:05;10.05;;;6.82;;
37945;SDS011;23769;52.478;13.448;2023-12-14T07:05:32;11.05;;;6.78;;
37945;SDS011;23769;52.478;13.448;2023-12-14T07:08:00;13.30;;;8.07;;
37945;SDS011;23769;52.478;13.448;2023-12-14T07:10:27;11.43;;;6.90;;
37945;SDS011;23769;52.478;13.448;2023-12-14T07:12:54;11.98;;;7.65;;
37945;SDS011;23769;52.478;13.448;2023-12-14T07:15:22;10.68;;;7.53;;
37945;SDS011;23769;52.478;13.448;2023-12-14T07:17:51;12.50;;;8.32;;
37945;SDS011;23769;52.478;13.448;2023-12-14T07:20:18;14.80;;;8.30;;
37945;SDS011;23769;52.478;13.448;2023-12-14T07:22:46;15.30;;;8.75;;
37945;SDS011;23769;52.478;13.448;2023-12-14T07:25:14;12.70;;;8.05;;
37945;SDS011;23769;52.478;13.448;2023-12-14T07:27:41;14.02;;;8.68;;
37945;SDS011;23769;52.478;13.448;2023-12-14T07:30:11;13.38;;;8.45;;
37945;SDS011;23769;52.478;13.448;2023-12-14T07:32:39;13.75;;;9.05;;
37945;SDS011;23769;52.478;13.448;2023-12-14T07:35:09;13.63;;;8.88;;
37945;SDS011;23769;52.478;13.448;2023-12-14T07:37:36;13.10;;;8.25;;
37945;SDS011;23769;52.478;13.448;2023-12-14T07:40:04;16.40;;;8.85;;
37945;SDS011;23769;52.478;13.448;2023-12-14T07:42:32;14.63;;;8.73;;
37945;SDS011;23769;52.478;13.448;2023-12-14T07:44:59;13.50;;;8.55;;
37945;SDS011;23769;52.478;13.448;2023-12-14T07:47:26;16.48;;;8.55;;
37945;SDS011;23769;52.478;13.448;2023-12-14T07:49:54;15.38;;;8.75;;
37945;SDS011;23769;52.478;13.448;2023-12-14T07:52:23;17.77;;;8.60;;
37945;SDS011;23769;52.478;13.448;2023-12-14T07:54:50;16.50;;;9.48;;
37945;SDS011;23769;52.478;13.448;2023-12-14T07:57:18;13.52;;;7.53;;
37945;SDS011;23769;52.478;13.448;2023-12-14T07:59:45;15.23;;;9.23;;
37945;SDS011;23769;52.478;13.448;2023-12-14T08:02:12;15.43;;;8.68;;
37945;SDS011;23769;52.478;13.448;2023-12-14T08:04:40;14.93;;;9.15;;
37945;SDS011;23769;52.478;13.448;2023-12-14T08:07:07;13.43;;;8.50;;
37945;SDS011;23769;52.478;13.448;2023-12-14T08:09:36;15.32;;;9.65;;
37945;SDS011;23769;52.478;13.448;2023-12-14T08:12:04;43.95;;;18.38;;
37945;SDS011;23769;52.478;13.448;2023-12-14T08:14:32;17.85;;;10.98;;
37945;SDS011;23769;52.478;13.448;2023-12-14T08:16:59;19.60;;;10.73;;
37945;SDS011;23769;52.478;13.448;2023-12-14T08:19:27;18.17;;;10.77;;
37945;SDS011;23769;52.478;13.448;2023-12-14T08:21:55;17.98;;;11.18;;
37945;SDS011;23769;52.478;13.448;2023-12-14T08:24:22;16.42;;;9.80;;
37945;SDS011;23769;52.478;13.448;2023-12-14T08:26:51;16.65;;;10.43;;
37945;SDS011;23769;52.478;13.448;2023-12-14T08:29:19;16.08;;;10.90;;
37945;SDS011;23769;52.478;13.448;2023-12-14T08:31:47;15.50;;;9.98;;
37945;SDS011;23769;52.478;13.448;2023-12-14T08:34:15;18.73;;;10.57;;
37945;SDS011;23769;52.478;13.448;2023-12-14T08:36:42;18.83;;;10.25;;
37945;SDS011;23769;52.478;13.448;2023-12-14T08:39:09;18.23;;;10.88;;
37945;SDS011;23769;52.478;13.448;2023-12-14T08:41:37;15.45;;;9.63;;
37945;SDS011;23769;52.478;13.448;2023-12-14T08:44:06;18.77;;;10.40;;
37945;SDS011;23769;52.478;13.448;2023-12-14T08:46:38;14.70;;;9.70;;
37945;SDS011;23769;52.478;13.448;2023-12-14T08:49:05;19.27;;;11.52;;
37945;SDS011;23769;52.478;13.448;2023-12-14T08:51:33;19.35;;;12.05;;
37945;SDS011;23769;52.478;13.448;2023-12-14T08:54:00;18.25;;;11.45;;
37945;SDS011;23769;52.478;13.448;2023-12-14T08:56:27;18.17;;;10.75;;
37945;SDS011;23769;52.478;13.448;2023-12-14T08:58:55;18.02;;;10.82;;
37945;SDS011;23769;52.478;13.448;2023-12-14T09:01:23;21.80;;;11.88;;
37945;SDS011;23769;52.478;13.448;2023-12-14T09:03:51;17.90;;;11.18;;
37945;SDS011;23769;52.478;13.448;2023-12-14T09:06:18;18.63;;;10.95;;
37945;SDS011;23769;52.478;13.448;2023-12-14T09:08:45;19.23;;;11.77;;
37945;SDS011;23769;52.478;13.448;2023-12-14T09:11:13;18.15;;;10.85;;
37945;SDS011;23769;52.478;13.448;2023-12-14T09:13:42;15.32;;;10.10;;
37945;SDS011;23769;52.478;13.448;2023-12-14T09:16:09;17.13;;;10.55;;
37945;SDS011;23769;52.478;13.448;2023-12-14T09:18:38;16.08;;;10.07;;
37945;SDS011;23769;52.478;13.448;2023-12-14T09:21:06;17.30;;;10.43;;
37945;SDS011;23769;52.478;13.448;2023-12-14T09:23:33;20.33;;;11.85;;
37945;SDS011;23769;52.478;13.448;2023-12-14T09:26:01;18.48;;;10.27;;
37945;SDS011;23769;52.478;13.448;2023-12-14T09:28:28;23.23;;;12.52;;
37945;SDS011;23769;52.478;13.448;2023-12-14T09:30:56;18.63;;;10.85;;
37945;SDS011;23769;52.478;13.448;2023-12-14T09:33:23;18.35;;;9.90;;
37945;SDS011;23769;52.478;13.448;2023-12-14T09:35:52;18.00;;;10.00;;
37945;SDS011;23769;52.478;13.448;2023-12-14T09:38:19;17.75;;;10.98;;
37945;SDS011;23769;52.478;13.448;2023-12-14T09:40:49;15.95;;;9.68;;
37945;SDS011;23769;52.478;13.448;2023-12-14T09:43:16;13.80;;;8.80;;
37945;SDS011;23769;52.478;13.448;2023-12-14T09:45:44;16.10;;;9.35;;
37945;SDS011;23769;52.478;13.448;2023-12-14T09:48:12;16.33;;;9.18;;
37945;SDS011;23769;52.478;13.448;2023-12-14T09:50:40;16.08;;;8.93;;
37945;SDS011;23769;52.478;13.448;2023-12-14T09:53:09;14.70;;;8.60;;
37945;SDS011;23769;52.478;13.448;2023-12-14T09:55:37;12.77;;;8.40;;
37945;SDS011;23769;52.478;13.448;2023-12-14T09:58:04;14.23;;;8.10;;
37945;SDS011;23769;52.478;13.448;2023-12-14T10:00:35;13.90;;;7.68;;
37945;SDS011;23769;52.478;13.448;2023-12-14T10:08:44;13.93;;;7.55;;
37945;SDS011;23769;52.478;13.448;2023-12-14T10:11:21;13.02;;;7.82;;
37945;SDS011;23769;52.478;13.448;2023-12-14T10:13:50;14.48;;;7.82;;
37945;SDS011;23769;52.478;13.448;2023-12-14T10:16:28;14.98;;;8.80;;
37945;SDS011;23769;52.478;13.448;2023-12-14T10:18:56;13.20;;;8.48;;
37945;SDS011;23769;52.478;13.448;2023-12-14T10:21:24;17.40;;;8.48;;
37945;SDS011;23769;52.478;13.448;2023-12-14T10:23:52;13.48;;;8.80;;
37945;SDS011;23769;52.478;13.448;2023-12-14T10:26:22;17.05;;;10.23;;
37945;SDS011;23769;52.478;13.448;2023-12-14T10:28:50;13.18;;;9.23;;
37945;SDS011;23769;52.478;13.448;2023-12-14T10:31:19;15.95;;;9.13;;
37945;SDS011;23769;52.478;13.448;2023-12-14T10:33:46;16.90;;;9.57;;
37945;SDS011;23769;52.478;13.448;2023-12-14T10:36:16;15.73;;;9.43;;
37945;SDS011;23769;52.478;13.448;2023-12-14T10:38:48;17.33;;;10.50;;
37945;SDS011;23769;52.478;13.448;2023-12-14T10:41:17;18.52;;;10.85;;
37945;SDS011;23769;52.478;13.448;2023-12-14T10:43:45;17.98;;;10.90;;
37945;SDS011;23769;52.478;13.448;2023-12-14T10:46:13;15.95;;;9.27;;
37945;SDS011;23769;52.478;13.448;2023-12-14T10:48:42;16.63;;;9.63;;
37945;SDS011;23769;52.478;13.448;2023-12-14T10:51:10;13.98;;;9.13;;
37945;SDS011;23769;52.478;13.448;2023-12-14T10:53:38;18.08;;;10.18;;
37945;SDS011;23769;52.478;13.448;2023-12-14T10:56:09;16.90;;;10.57;;
37945;SDS011;23769;52.478;13.448;2023-12-14T10:58:45;16.33;;;10.30;;
37945;SDS011;23769;52.478;13.448;2023-12-14T11:01:13;16.35;;;10.63;;
37945;SDS011;23769;52.478;13.448;2023-12-14T11:03:42;17.63;;;10.45;;
37945;SDS011;23769;52.478;13.448;2023-12-14T11:08:58;15.25;;;9.95;;
37945;SDS011;23769;52.478;13.448;2023-12-14T11:11:29;17.15;;;9.13;;
37945;SDS011;23769;52.478;13.448;2023-12-14T11:13:58;19.70;;;11.93;;
37945;SDS011;23769;52.478;13.448;2023-12-14T11:16:26;19.05;;;11.02;;
37945;SDS011;23769;52.478;13.448;2023-12-14T11:21:42;16.35;;;10.07;;
37945;SDS011;23769;52.478;13.448;2023-12-14T11:24:09;17.05;;;10.93;;
37945;SDS011;23769;52.478;13.448;2023-12-14T11:26:37;17.40;;;10.35;;
37945;SDS011;23769;52.478;13.448;2023-12-14T11:29:05;17.67;;;10.05;;
37945;SDS011;23769;52.478;13.448;2023-12-14T11:31:33;17.45;;;10.98;;
37945;SDS011;23769;52.478;13.448;2023-12-14T11:34:01;15.50;;;9.80;;
37945;SDS011;23769;52.478;13.448;2023-12-14T11:36:31;17.85;;;9.63;;
37945;SDS011;23769;52.478;13.448;2023-12-14T11:38:58;16.88;;;11.10;;
37945;SDS011;23769;52.478;13.448;2023-12-14T11:41:26;20.15;;;10.50;;
37945;SDS011;23769;52.478;13.448;2023-12-14T11:43:54;18.35;;;10.55;;
37945;SDS011;23769;52.478;13.448;2023-12-14T11:46:23;17.98;;;11.15;;
37945;SDS011;23769;52.478;13.448;2023-12-14T11:48:51;15.05;;;8.75;;
37945;SDS011;23769;52.478;13.448;2023-12-14T11:51:18;16.88;;;9.85;;
37945;SDS011;23769;52.478;13.448;2023-12-14T11:53:46;14.82;;;8.77;;
37945;SDS011;23769;52.478;13.448;2023-12-14T11:56:13;14.27;;;9.07;;
37945;SDS011;23769;52.478;13.448;2023-12-14T11:58:43;17.13;;;10.13;;
37945;SDS011;23769;52.478;13.448;2023-12-14T12:01:11;18.35;;;9.77;;
37945;SDS011;23769;52.478;13.448;2023-12-14T12:03:40;17.45;;;9.77;;
37945;SDS011;23769;52.478;13.448;2023-12-14T12:06:09;16.88;;;10.18;;
37945;SDS011;23769;52.478;13.448;2023-12-14T12:08:46;17.65;;;9.77;;
37945;SDS011;23769;52.478;13.448;2023-12-14T12:11:15;16.27;;;9.50;;
37945;SDS011;23769;52.478;13.448;2023-12-14T12:13:43;15.60;;;9.32;;
37945;SDS011;23769;52.478;13.448;2023-12-14T12:16:10;17.08;;;9.40;;
37945;SDS011;23769;52.478;13.448;2023-12-14T12:18:38;19.88;;;10.70;;
37945;SDS011;23769;52.478;13.448;2023-12-14T12:21:06;17.60;;;9.70;;
37945;SDS011;23769;52.478;13.448;2023-12-14T12:23:34;17.55;;;10.65;;
37945;SDS011;23769;52.478;13.448;2023-12-14T12:26:02;16.38;;;10.10;;
37945;SDS011;23769;52.478;13.448;2023-12-14T12:28:30;14.25;;;9.48;;
37945;SDS011;23769;52.478;13.448;2023-12-14T12:30:57;16.80;;;9.70;;
37945;SDS011;23769;52.478;13.448;2023-12-14T12:33:25;14.77;;;10.07;;
37945;SDS011;23769;52.478;13.448;2023-12-14T12:35:52;15.25;;;10.55;;
37945;SDS011;23769;52.478;13.448;2023-12-14T12:38:21;17.02;;;9.57;;
37945;SDS011;23769;52.478;13.448;2023-12-14T12:40:48;16.23;;;10.38;;
37945;SDS011;23769;52.478;13.448;2023-12-14T12:43:15;16.60;;;9.70;;
37945;SDS011;23769;52.478;13.448;2023-12-14T12:45:42;18.80;;;10.88;;
37945;SDS011;23769;52.478;13.448;2023-12-14T12:48:10;16.35;;;9.88;;
37945;SDS011;23769;52.478;13.448;2023-12-14T12:50:38;16.55;;;10.52;;
37945;SDS011;23769;52.478;13.448;2023-12-14T12:53:05;18.42;;;11.38;;
37945;SDS011;23769;52.478;13.448;2023-12-14T12:55:34;16.08;;;9.30;;
37945;SDS011;23769;52.478;13.448;2023-12-14T12:58:01;16.20;;;10.15;;
37945;SDS011;23769;52.478;13.448;2023-12-14T13:00:32;57.88;;;27.95;;
37945;SDS011;23769;52.478;13.448;2023-12-14T13:03:00;18.67;;;10.20;;
37945;SDS011;23769;52.478;13.448;2023-12-14T13:05:28;17.17;;;10.40;;
37945;SDS011;23769;52.478;13.448;2023-12-14T13:07:55;17.77;;;10.65;;
37945;SDS011;23769;52.478;13.448;2023-12-14T13:10:23;15.57;;;9.35;;
37945;SDS011;23769;52.478;13.448;2023-12-14T13:12:53;16.08;;;10.52;;
37945;SDS011;23769;52.478;13.448;2023-12-14T13:15:21;17.23;;;9.70;;
37945;SDS011;23769;52.478;13.448;2023-12-14T13:17:50;17.10;;;10.10;;
37945;SDS011;23769;52.478;13.448;2023-12-14T13:20:17;15.88;;;10.27;;
37945;SDS011;23769;52.478;13.448;2023-12-14T13:22:45;17.73;;;10.55;;
37945;SDS011;23769;52.478;13.448;2023-12-14T13:25:12;14.27;;;9.82;;
37945;SDS011;23769;52.478;13.448;2023-12-14T13:27:41;15.45;;;9.85;;
37945;SDS011;23769;52.478;13.448;2023-12-14T13:30:10;16.42;;;10.70;;
37945;SDS011;23769;52.478;13.448;2023-12-14T13:32:41;16.73;;;9.65;;
37945;SDS011;23769;52.478;13.448;2023-12-14T13:35:08;16.40;;;10.45;;
37945;SDS011;23769;52.478;13.448;2023-12-14T13:37:36;17.90;;;10.20;;
37945;SDS011;23769;52.478;13.448;2023-12-14T13:40:04;17.20;;;9.75;;
37945;SDS011;23769;52.478;13.448;2023-12-14T13:42:32;15.82;;;9.70;;
37945;SDS011;23769;52.478;13.448;2023-12-14T13:44:59;17.35;;;9.15;;
37945;SDS011;23769;52.478;13.448;2023-12-14T13:47:28;16.88;;;8.98;;
37945;SDS011;23769;52.478;13.448;2023-12-14T13:49:55;15.65;;;10.55;;
37945;SDS011;23769;52.478;13.448;2023-12-14T13:52:22;16.75;;;10.43;;
37945;SDS011;23769;52.478;13.448;2023-12-14T13:54:50;17.88;;;11.07;;
37945;SDS011;23769;52.478;13.448;2023-12-14T13:57:17;17.50;;;10.95;;
37945;SDS011;23769;52.478;13.448;2023-12-14T13:59:46;16.20;;;10.52;;
37945;SDS011;23769;52.478;13.448;2023-12-14T14:02:13;15.05;;;10.65;;
37945;SDS011;23769;52.478;13.448;2023-12-14T14:04:41;16.10;;;10.02;;
37945;SDS011;23769;52.478;13.448;2023-12-14T14:07:09;20.55;;;10.63;;
37945;SDS011;23769;52.478;13.448;2023-12-14T14:09:36;23.30;;;11.25;;
37945;SDS011;23769;52.478;13.448;2023-12-14T14:12:03;21.92;;;11.43;;
37945;SDS011;23769;52.478;13.448;2023-12-14T14:14:31;22.40;;;11.55;;
37945;SDS011;23769;52.478;13.448;2023-12-14T14:16:58;18.95;;;11.32;;
37945;SDS011;23769;52.478;13.448;2023-12-14T14:19:25;18.75;;;10.38;;
37945;SDS011;23769;52.478;13.448;2023-12-14T14:21:54;19.13;;;10.68;;
37945;SDS011;23769;52.478;13.448;2023-12-14T14:24:21;17.48;;;10.73;;
37945;SDS011;23769;52.478;13.448;2023-12-14T14:26:48;24.30;;;10.57;;
37945;SDS011;23769;52.478;13.448;2023-12-14T14:29:16;20.30;;;10.75;;
37945;SDS011;23769;52.478;13.448;2023-12-14T14:31:44;17.27;;;10.80;;